• Join FlightAware (Why Join?)
  • Login
  • US Flag 
04:10PM EST


 

Airport Tracker/Info


-or-


 

Live Flight TrackerFlight Track Log ✈ AAL1326 ✈ 12-May-2013 ✈ KORD - KFLL

Flight Track Log - Related Links

Times and Time Zones

All times are in EDT time to prevent confusion due to time zone crossing. See the AAL1326 flight status page for this flight to view local times or setup timezone preferences in your user account.

Time Position Orientation Groundspeed Altitude Reporting Facility
EDT Latitude Longitude Course Direction KTS MPH feet Rate Location/Type
06:57PM 41.9320 -87.9120 221° Southwest 192 221 2,100  Level FlightAware
06:57PM 41.9070 -87.9090 175° South 230 265 2,800 2,160 Climbing FlightAware
06:58PM 41.8720 -87.8960 165° South 263 303 4,100 1,920 Climbing FlightAware
06:58PM 41.8450 -87.8860 165° South 275 316 4,600 1,080 Climbing FlightAware
06:59PM 41.8070 -87.8710 164° South 279 321 5,100 2,160 Climbing FlightAware
06:59PM 41.7760 -87.8590 164° South 279 321 6,600 3,480 Climbing FlightAware
06:59PM 41.7380 -87.8450 165° South 286 329 8,300 3,180 Climbing FlightAware
07:00PM 41.6990 -87.8300 164° South 302 348 9,800 3,000 Climbing FlightAware
07:01PM 41.6420 -87.8090 165° South 317 365 11,800 2,460 Climbing FlightAware
07:01PM 41.5820 -87.7860 164° South 353 406 13,100 1,620 Climbing FlightAware
07:02PM 41.5130 -87.7600 164° South 398 458 14,000 1,920 Climbing FlightAware
07:03PM 41.4350 -87.7330 165° South 410 472 15,900 2,580 Climbing FlightAware
07:03PM 41.3610 -87.7250 175° South 412 474 17,700 2,520 Climbing FlightAware
07:04PM 41.2710 -87.7260 180° South 428 493 19,500 2,460 Climbing FlightAware
07:05PM 41.2110 -87.7260 180° South 431 496 20,800 2,220 Climbing FlightAware
07:05PM 41.1110 -87.7150 175° South 449 517 22,500 1,740 Climbing FlightAware
07:06PM 41.0160 -87.7010 174° South 470 541 23,600 1,860 Climbing FlightAware
07:07PM 40.9150 -87.6880 174° South 473 544 25,300 1,740 Climbing FlightAware
07:08PM 40.8370 -87.6770 174° South 483 556 26,100 1,620 Climbing FlightAware
07:08PM 40.7380 -87.6390 164° South 497 572 27,500 1,860 Climbing FlightAware
07:09PM 40.6440 -87.5890 158° South 500 575 28,800 1,680 Climbing FlightAware
07:10PM 40.5580 -87.5460 159° South 499 574 29,900 1,740 Climbing FlightAware
07:10PM 40.4590 -87.4960 159° South 497 572 31,300 1,920 Climbing FlightAware
07:11PM 40.3720 -87.4520 159° South 487 560 32,700 1,740 Climbing FlightAware
07:12PM 40.2870 -87.4080 158° South 481 554 33,800 1,500 Climbing FlightAware
07:12PM 40.2140 -87.3710 159° South 477 549 34,700 1,260 Climbing FlightAware
07:13PM 40.1010 -87.3150 159° South 480 552 35,600 960 Climbing FlightAware
07:14PM 40.0200 -87.2750 159° South 481 554 36,200 960 Climbing FlightAware
07:15PM 39.9420 -87.2360 159° South 477 549 36,900 600 Climbing FlightAware
07:15PM 39.8570 -87.1940 159° South 477 549 37,000 60 Climbing FlightAware
07:16PM 39.7660 -87.1480 159° South 478 550 37,000  Level FlightAware
07:17PM 39.6560 -87.0940 159° South 479 551 37,000  Level FlightAware
07:18PM 39.5600 -87.0470 159° South 480 552 37,000  Level FlightAware
07:18PM 39.4740 -87.0040 159° South 479 551 37,000  Level FlightAware
07:19PM 39.3770 -86.9560 159° South 479 551 37,000  Level FlightAware
07:20PM 39.3170 -86.9260 159° South 480 552 37,000  Level FlightAware
07:20PM 39.2140 -86.8760 159° South 481 554 37,000  Level FlightAware
07:21PM 39.1190 -86.8200 155° Southeast 487 560 37,000  Level FlightAware
07:22PM 39.0430 -86.7680 152° Southeast 486 559 37,000  Level FlightAware
07:23PM 38.9520 -86.7070 152° Southeast 487 560 37,000  Level FlightAware
07:23PM 38.8720 -86.6530 152° Southeast 486 559 37,000  Level FlightAware
07:24PM 38.7970 -86.6020 152° Southeast 485 558 37,000  Level FlightAware
07:25PM 38.7010 -86.5380 153° Southeast 485 558 37,000  Level FlightAware
07:25PM 38.6280 -86.4900 153° Southeast 484 557 37,000  Level FlightAware
07:26PM 38.5380 -86.4290 152° Southeast 483 556 37,000  Level FlightAware
07:27PM 38.4690 -86.3830 152° Southeast 483 556 37,000  Level FlightAware
07:27PM 38.3810 -86.3250 153° Southeast 484 557 37,000  Level FlightAware
07:28PM 38.2890 -86.2640 153° Southeast 485 558 37,000  Level FlightAware
07:29PM 38.2050 -86.2080 152° Southeast 484 557 37,000  Level FlightAware
07:30PM 38.1300 -86.1590 153° Southeast 484 557 37,000  Level FlightAware
07:30PM 38.0370 -86.0980 153° Southeast 485 558 37,000  Level FlightAware
07:31PM 37.9740 -86.0560 152° Southeast 485 558 37,000  Level FlightAware
07:32PM 37.8770 -85.9930 153° Southeast 483 556 37,000  Level FlightAware
07:32PM 37.8170 -85.9530 152° Southeast 483 556 37,000  Level FlightAware
07:33PM 37.7300 -85.8970 153° Southeast 478 550 37,000  Level FlightAware
07:33PM 37.6738 -85.8602 153° Southeast 477 549 37,000  Level FlightAware ADS-B
07:34PM 37.6145 -85.8214 153° Southeast 477 549 37,000  Level FlightAware ADS-B
07:34PM 37.5549 -85.7826 153° Southeast 475 547 37,000  Level FlightAware ADS-B
07:35PM 37.4944 -85.7436 153° Southeast 474 545 37,000  Level FlightAware ADS-B
07:35PM 37.4347 -85.7053 153° Southeast 474 545 37,000  Level FlightAware ADS-B
07:36PM 37.3969 -85.6838 156° South 468 539 37,000  Level FlightAware ADS-B
07:36PM 37.3330 -85.6595 163° South 456 525 37,000  Level FlightAware ADS-B
07:37PM 37.2539 -85.6323 165° South 456 525 37,000  Level FlightAware ADS-B
07:37PM 37.1906 -85.6104 165° South 456 525 37,000  Level FlightAware ADS-B
07:38PM 37.1293 -85.5892 165° South 455 524 37,000  Level FlightAware ADS-B
07:38PM 37.0653 -85.5669 164° South 455 524 37,000  Level FlightAware ADS-B
07:39PM 37.0011 -85.5448 165° South 455 524 37,000  Level FlightAware ADS-B
07:40PM 36.9257 -85.5191 165° South 455 524 37,000  Level FlightAware ADS-B
07:40PM 36.8632 -85.4979 165° South 455 524 37,000  Level FlightAware ADS-B
07:41PM 36.7990 -85.4760 165° South 456 525 37,000  Level FlightAware ADS-B
07:41PM 36.7329 -85.4534 165° South 456 525 37,000  Level FlightAware ADS-B
07:42PM 36.6647 -85.4300 165° South 456 525 37,000  Level FlightAware ADS-B
07:42PM 36.6013 -85.4085 165° South 457 526 37,000  Level FlightAware ADS-B
07:43PM 36.5392 -85.3877 165° South 462 532 37,000  Level FlightAware ADS-B
07:43PM 36.4695 -85.3641 165° South 466 536 37,000  Level FlightAware ADS-B
07:44PM 36.3962 -85.3389 165° South 466 536 37,000  Level FlightAware ADS-B
07:44PM 36.3330 -85.3174 165° South 465 535 37,000  Level FlightAware ADS-B
07:45PM 36.2709 -85.2964 165° South 463 533 37,000  Level FlightAware ADS-B
07:45PM 36.2079 -85.2753 165° South 461 531 37,000  Level FlightAware ADS-B
07:46PM 36.1457 -85.2545 165° South 460 529 37,000  Level FlightAware ADS-B
07:47PM 36.0519 -85.2230 165° South 459 528 37,000  Level FlightAware ADS-B
07:47PM 35.9904 -85.2024 165° South 454 522 37,000  Level FlightAware ADS-B
07:48PM 35.9297 -85.1820 165° South 451 519 37,000  Level FlightAware ADS-B
07:48PM 35.8607 -85.1590 165° South 450 518 37,000  Level FlightAware ADS-B
07:49PM 35.7966 -85.1376 165° South 449 517 37,000  Level FlightAware ADS-B
07:49PM 35.7366 -85.1177 165° South 447 514 37,000  Level FlightAware ADS-B
07:50PM 35.6757 -85.0976 165° South 447 514 37,000  Level FlightAware ADS-B
07:50PM 35.6150 -85.0774 165° South 447 514 37,000  Level FlightAware ADS-B
07:51PM 35.5545 -85.0573 165° South 447 514 37,000  Level FlightAware ADS-B
07:51PM 35.4909 -85.0361 165° South 446 513 37,000  Level FlightAware ADS-B
07:52PM 35.4312 -85.0163 165° South 445 512 37,000  Level FlightAware ADS-B
07:52PM 35.3689 -84.9958 165° South 448 516 37,000  Level FlightAware ADS-B
07:53PM 35.3050 -84.9749 165° South 450 518 37,000  Level FlightAware ADS-B
07:53PM 35.2440 -84.9549 165° South 451 519 37,000  Level FlightAware ADS-B
07:54PM 35.1827 -84.9348 165° South 451 519 37,000  Level FlightAware ADS-B
07:54PM 35.1221 -84.9148 165° South 451 519 37,000  Level FlightAware ADS-B
07:55PM 35.0609 -84.8948 165° South 449 517 37,000  Level FlightAware ADS-B
07:55PM 34.9972 -84.8740 165° South 450 518 37,000 180 Level FlightAware ADS-B
07:58PM 34.6911 -84.7747 165° South 450 518 37,700 300 Climbing FlightAware ADS-B
07:59PM 34.6212 -84.7523 165° South 455 524 38,000 720 Climbing FlightAware ADS-B
07:59PM 34.5593 -84.7321 165° South 451 519 38,500 960 Climbing FlightAware ADS-B
08:00PM 34.4959 -84.7116 165° South 445 512 39,000 420 Climbing FlightAware ADS-B
08:00PM 34.4350 -84.6920 165° South 433 498 39,000  Level FlightAware
08:00PM 34.4141 -84.6852 165° South 441 507 39,000  Level FlightAware ADS-B
08:01PM 34.3488 -84.6643 165° South 438 504 39,000  Level FlightAware ADS-B
08:01PM 34.2870 -84.6445 165° South 437 503 39,000  Level FlightAware ADS-B
08:02PM 34.2280 -84.6256 165° South 437 503 39,000  Level FlightAware ADS-B
08:03PM 34.1077 -84.5872 165° South 435 501 39,000  Level FlightAware ADS-B
08:04PM 34.0250 -84.5610 165° South 432 497 39,000  Level FlightAware
08:04PM 33.9819 -84.5471 165° South 435 501 39,000  Level FlightAware ADS-B
08:04PM 33.9228 -84.5282 165° South 432 497 39,000  Level FlightAware ADS-B
08:05PM 33.8642 -84.5095 165° South 430 495 39,000  Level FlightAware ADS-B
08:05PM 33.8063 -84.4911 165° South 428 493 39,000  Level FlightAware ADS-B
08:06PM 33.7358 -84.4689 165° South 426 490 39,000  Level FlightAware ADS-B
08:07PM 33.6337 -84.4367 165° South 426 490 39,000  Level FlightAware ADS-B
08:07PM 33.5752 -84.4129 161° South 435 501 39,000  Level FlightAware ADS-B
08:08PM 33.5137 -84.3871 161° South 436 502 39,000  Level FlightAware ADS-B
08:09PM 33.4314 -84.3525 161° South 436 502 39,000  Level FlightAware ADS-B
08:09PM 33.3610 -84.3230 161° South 435 501 39,000  Level FlightAware
08:10PM 33.2850 -84.2910 161° South 436 502 39,000  Level FlightAware
08:10PM 33.2682 -84.2845 162° South 435 501 39,000  Level FlightAware ADS-B
08:11PM 33.2080 -84.2600 161° South 437 503 39,000  Level FlightAware
08:11PM 33.1220 -84.2240 161° South 438 504 39,000  Level FlightAware
08:12PM 33.0480 -84.1930 161° South 439 505 39,000  Level FlightAware
08:13PM 32.9690 -84.1600 161° South 440 506 39,000  Level FlightAware
08:13PM 32.9010 -84.1310 160° South 440 506 39,000  Level FlightAware
08:14PM 32.8220 -84.1000 162° South 441 507 39,000  Level FlightAware
08:15PM 32.7470 -84.0670 160° South 441 507 39,000  Level FlightAware
08:16PM 32.6820 -84.0390 160° South 441 507 39,000  Level FlightAware
08:16PM 32.5720 -83.9970 162° South 441 507 39,000  Level FlightAware
08:17PM 32.5000 -83.9680 161° South 429 494 39,000  Level FlightAware
08:18PM 32.3750 -83.9170 161° South 430 495 39,000  Level FlightAware
08:19PM 32.3010 -83.8860 161° South 430 495 39,000  Level FlightAware
08:19PM 32.2370 -83.8580 160° South 430 495 39,000  Level FlightAware
08:20PM 32.1740 -83.8310 160° South 430 495 39,000  Level FlightAware
08:21PM 32.1100 -83.8040 160° South 430 495 39,000  Level FlightAware
08:22PM 32.0310 -83.7700 160° South 430 495 39,000  Level FlightAware
08:22PM 31.9670 -83.7420 160° South 430 495 39,000  Level FlightAware
08:23PM 31.9040 -83.7150 160° South 430 495 39,000  Level FlightAware
08:24PM 31.8400 -83.6880 160° South 430 495 39,000  Level FlightAware
08:24PM 31.7770 -83.6610 160° South 430 495 39,000  Level FlightAware
08:25PM 31.6970 -83.6270 160° South 430 495 39,000  Level FlightAware
08:26PM 31.6340 -83.5990 159° South 430 495 39,000  Level FlightAware
08:26PM 31.5700 -83.5720 160° South 430 495 39,000  Level FlightAware
08:27PM 31.5060 -83.5450 160° South 430 495 39,000  Level FlightAware
08:28PM 31.4430 -83.5180 160° South 430 495 39,000  Level FlightAware
08:29PM 31.1214 -83.4144 160° South 445 512 39,000  Level Jacksonville Center
08:30PM 31.0069 -83.3700 162° South 445 512 39,000  Level Jacksonville Center
08:31PM 30.8922 -83.3236 161° South 445 512 39,000  Level Jacksonville Center
08:32PM 30.7942 -83.2844 161° South 431 496 39,000  Level Jacksonville Center
08:33PM 30.6794 -83.2283 157° South 431 496 39,000 -60 Level Jacksonville Center
08:34PM 30.5647 -83.1700 156° South 437 503 38,900  Descending Jacksonville Center
08:35PM 30.4500 -83.1119 156° South 443 510 39,000  Climbing Jacksonville Center
08:36PM 30.3375 -83.0564 157° South 443 510 39,000  Level Jacksonville Center
08:42PM 29.6340 -82.7100 157° South 39,000  Level FlightAware
08:43PM 29.5380 -82.6620 156° South 448 516 39,000  Level FlightAware
08:43PM 29.4670 -82.6280 157° South 447 514 39,000  Level FlightAware
08:44PM 29.3880 -82.5890 157° South 439 505 39,000  Level FlightAware
08:45PM 29.2790 -82.5360 157° South 447 514 39,000  Level FlightAware
08:46PM 29.1900 -82.4930 157° South 448 516 39,000  Level FlightAware
08:46PM 29.1150 -82.4580 158° South 439 505 39,000  Level FlightAware
08:47PM 29.0000 -82.4520 177° South 408 470 39,000  Level FlightAware
08:48PM 28.9250 -82.4570 183° South 410 472 39,000  Level FlightAware
08:49PM 28.8190 -82.4520 178° South 429 494 39,000  Level FlightAware
08:50PM 28.7270 -82.4350 171° South 431 496 39,000  Level FlightAware
08:50PM 28.6500 -82.4200 170° South 433 498 39,000  Level FlightAware
08:51PM 28.5690 -82.4050 171° South 434 499 39,000  Level FlightAware
08:52PM 28.4810 -82.3890 171° South 434 499 39,000  Level FlightAware
08:52PM 28.4030 -82.3740 170° South 433 498 39,000  Level FlightAware
08:53PM 28.3230 -82.3590 171° South 433 498 39,000  Level FlightAware
08:54PM 28.2360 -82.3430 171° South 433 498 39,000  Level FlightAware
08:54PM 28.1530 -82.3280 171° South 432 497 39,000  Level FlightAware
08:55PM 28.0670 -82.3120 171° South 432 497 39,000  Level FlightAware
08:56PM 27.9870 -82.2970 171° South 431 496 39,000 -240 Level FlightAware
08:56PM 27.9080 -82.2830 171° South 433 498 38,700 -780 Descending FlightAware
08:57PM 27.8190 -82.2670 171° South 438 504 37,900 -1,020 Descending FlightAware
08:58PM 27.7380 -82.2520 171° South 444 511 37,300 -960 Descending FlightAware
08:59PM 27.6460 -82.2350 171° South 448 516 36,600 -960 Descending FlightAware
08:59PM 27.5620 -82.2200 171° South 449 517 36,000 -1,020 Descending FlightAware
09:00PM 27.4670 -82.2020 170° South 453 521 35,200 -960 Descending FlightAware
09:01PM 27.3920 -82.1890 171° South 458 527 34,700 -840 Descending FlightAware
09:01PM 27.3090 -82.1740 171° South 455 524 34,100 -1,020 Descending FlightAware
09:02PM 27.2060 -82.1540 170° South 464 534 33,300 -1,080 Descending FlightAware
09:03PM 27.1270 -82.1090 153° Southeast 487 560 32,600 -1,020 Descending FlightAware
09:03PM 27.0580 -82.0460 141° Southeast 487 560 32,000 -1,860 Descending FlightAware
09:04PM 26.9860 -81.9670 136° Southeast 488 562 30,000 -2,580 Descending FlightAware
09:05PM 26.9250 -81.8950 134° Southeast 476 548 28,400 -2,400 Descending FlightAware
09:06PM 26.8640 -81.8250 134° Southeast 464 534 26,800 -2,280 Descending FlightAware
09:06PM 26.8010 -81.7530 134° Southeast 444 511 25,200 -2,700 Descending FlightAware
09:07PM 26.7440 -81.6880 134° Southeast 447 514 23,000 -3,000 Descending FlightAware
09:08PM 26.6790 -81.6150 135° Southeast 448 516 21,000 -2,040 Descending FlightAware
09:08PM 26.6250 -81.5540 135° Southeast 418 481 20,300 -1,440 Descending FlightAware
09:09PM 26.5590 -81.4790 135° Southeast 395 455 19,000 -1,740 Descending FlightAware
09:10PM 26.5230 -81.4380 134° Southeast 386 444 18,000 -1,080 Descending FlightAware
09:10PM 26.4690 -81.3780 135° Southeast 389 448 17,600 -300 Descending FlightAware
09:11PM 26.4250 -81.3290 135° Southeast 389 448 17,600  Level FlightAware
09:12PM 26.3820 -81.2810 135° Southeast 389 448 17,600 -3,840 Level FlightAware
09:13PM 26.3030 -81.1910 134° Southeast 368 423 11,900 -4,680 Descending FlightAware
09:13PM 26.2560 -81.1380 135° Southeast 359 413 10,600 -1,380 Descending FlightAware
09:14PM 26.2080 -81.0840 135° Southeast 324 373 10,000 -720 Descending FlightAware
09:14PM 26.1830 -81.0560 135° Southeast 301 346 9,800 -1,020 Descending FlightAware
09:15PM 26.1540 -81.0230 134° Southeast 302 348 9,100 -1,560 Descending FlightAware
09:15PM 26.1280 -80.9940 135° Southeast 299 344 8,400 -1,200 Descending FlightAware
09:16PM 26.1080 -80.9570 121° Southeast 292 336 8,000 -600 Descending FlightAware
09:16PM 26.1060 -80.9180 93° East 291 335 7,900 -600 Descending FlightAware
09:17PM 26.1040 -80.8730 93° East 290 334 7,500 -840 Descending FlightAware
09:17PM 26.1020 -80.8300 93° East 289 333 7,100 -1,020 Descending FlightAware
09:18PM 26.1000 -80.7920 93° East 285 328 6,600 -1,020 Descending FlightAware
09:18PM 26.0990 -80.7520 92° East 284 327 6,200 -900 Descending FlightAware
09:19PM 26.0970 -80.7130 93° East 283 326 5,800 -900 Descending FlightAware
09:19PM 26.0950 -80.6680 93° East 282 325 5,400 -720 Descending FlightAware
09:19PM 26.0940 -80.6450 93° East 282 325 5,300 -540 Descending FlightAware
09:20PM 26.0930 -80.6160 92° East 284 327 5,100 -600 Descending FlightAware
09:20PM 26.0910 -80.5680 93° East 274 315 4,800 -600 Descending FlightAware
09:21PM 26.0900 -80.5440 93° East 266 306 4,600 -900 Descending FlightAware
09:21PM 26.0880 -80.5110 94° East 261 300 4,200 -1,140 Descending FlightAware
09:21PM 26.0860 -80.4710 93° East 261 300 3,600 -1,140 Descending FlightAware
09:22PM 26.0850 -80.4390 92° East 255 293 3,200 -1,020 Descending FlightAware
09:22PM 26.0830 -80.3990 93° East 249 287 2,700 -900 Descending FlightAware
09:23PM 26.0820 -80.3670 92° East 242 278 2,400 -600 Descending FlightAware
09:23PM 26.0800 -80.3320 94° East 226 260 2,200 -540 Descending FlightAware
09:24PM 26.0780 -80.2990 94° East 207 238 1,900 -600 Descending FlightAware
09:24PM 26.0770 -80.2730 92° East 196 226 1,700 -780 Descending FlightAware
09:25PM 26.0770 -80.2360 90° East 165 190 1,100 -900 Descending FlightAware
09:25PM 26.0770 -80.2120 90° East 153 176 700 -780 Descending FlightAware
09:26PM 26.0770 -80.1950 90° East 150 173 400 -480 Descending FlightAware
09:27PM 26.0770 -80.1610 90° East 150 173 200 -300 Descending FlightAware